^^
Grace C. Lehan Memorial Weather Station Historical Data
Daily Summary for August 29, 2021 Units:  English    Metric   Both
Daily Weekly Monthly Yearly
  High: Low: Average:
Temperature: 20 °F 8.2 °F 15.1 °F
Dew Point: 6.1 °F -2.8 °F 2.9 °F
Humidity: 69% 47.6% 58%
Wind Speed: 14.7mph 0.2mph 6.4mph
Wind Gust: 30mph - -
Wind- - NW
Pressure: 30.18 in 29.97 in -
Precipitation: 0.00 in    
 
 
Tabular Data for August 29, 2021
Time Temperature Dew Point Pressure Wind Wind Speed Wind Gust Humidity Rainfall Rate (Hourly) solar
00:04 16.8 °F 5.3 °F 30.05 in NW 7.3 mph 24 mph 60% 0.00 in 0 W/m2
00:09 16.7 °F 5.2 °F 30.05 in NW 3.8 mph 14 mph 60% 0.00 in 0 W/m2
00:14 16.6 °F 5.4 °F 30.05 in NW 6.4 mph 15 mph 60.9% 0.00 in 0 W/m2
00:19 16.4 °F 5.4 °F 30.05 in NW 8.5 mph 16 mph 61% 0.00 in 0 W/m2
00:24 16.4 °F 5.3 °F 30.04 in NW 7.1 mph 16 mph 61% 0.00 in 0 W/m2
00:29 16.4 °F 5.6 °F 30.04 in NW 8 mph 20 mph 61.8% 0.00 in 0 W/m2
00:34 16.4 °F 5.7 °F 30.04 in NW 7.4 mph 20 mph 62% 0.00 in 0 W/m2
00:39 16.4 °F 5.7 °F 30.04 in NW 9.5 mph 20 mph 62% 0.00 in 0 W/m2
00:44 16.4 °F 5.7 °F 30.04 in NW 10.2 mph 22 mph 62% 0.00 in 0 W/m2
00:49 16.4 °F 5.7 °F 30.03 in WNW 4.5 mph 22 mph 62.2% 0.00 in 0 W/m2
00:54 16.3 °F 5.9 °F 30.03 in NW 6.4 mph 22 mph 63% 0.00 in 0 W/m2
00:59 16.2 °F 5.9 °F 30.03 in NW 5.5 mph 22 mph 63% 0.00 in 0 W/m2
01:04 16.2 °F 5.8 °F 30.03 in NW 4.3 mph 22 mph 63% 0.00 in 0 W/m2
01:09 16.1 °F 6 °F 30.03 in NW 4.8 mph 11 mph 63.8% 0.00 in 0 W/m2
01:14 16 °F 6 °F 30.03 in NW 4.4 mph 12 mph 64% 0.00 in 0 W/m2
01:19 15.9 °F 5.9 °F 30.03 in NNW 4 mph 12 mph 64% 0.00 in 0 W/m2
01:24 15.8 °F 6 °F 30.03 in NW 4.5 mph 12 mph 64.5% 0.00 in 0 W/m2
01:29 15.8 °F 6.1 °F 30.03 in NW 5.4 mph 12 mph 65% 0.00 in 0 W/m2
01:34 15.8 °F 6.1 °F 30.03 in NW 4.7 mph 13 mph 65% 0.00 in 0 W/m2
01:39 15.7 °F 6 °F 30.03 in NNW 4 mph 13 mph 65% 0.00 in 0 W/m2
01:44 15.7 °F 6 °F 30.03 in NW 6.3 mph 13 mph 65% 0.00 in 0 W/m2
01:49 15.7 °F 6 °F 30.02 in NW 4.6 mph 18 mph 65% 0.00 in 0 W/m2
01:54 15.7 °F 6 °F 30.02 in NNW 3.3 mph 18 mph 65% 0.00 in 0 W/m2
01:59 15.7 °F 6 °F 30.02 in NW 3.7 mph 18 mph 65% 0.00 in 0 W/m2
02:04 15.6 °F 5.9 °F 30.02 in NW 4.4 mph 18 mph 65% 0.00 in 0 W/m2
02:09 15.5 °F 5.9 °F 30.02 in NW 4.2 mph 12 mph 65% 0.00 in 0 W/m2
02:14 15.5 °F 5.8 °F 30.02 in NW 6.2 mph 14 mph 65% 0.00 in 0 W/m2
02:19 15.5 °F 5.9 °F 30.01 in NW 3.1 mph 14 mph 65% 0.00 in 0 W/m2
02:24 15.5 °F 5.9 °F 30.01 in WNW 3.3 mph 14 mph 65% 0.00 in 0 W/m2
02:29 15.4 °F 5.8 °F 30.01 in NW 4.1 mph 14 mph 65.2% 0.00 in 0 W/m2
02:34 15.4 °F 6 °F 30.01 in NW 5 mph 14 mph 65.8% 0.00 in 0 W/m2
02:39 15.3 °F 5.7 °F 30.01 in NW 5.8 mph 13 mph 65% 0.00 in 0 W/m2
02:44 15.3 °F 5.7 °F 30.01 in NW 6.2 mph 13 mph 65% 0.00 in 0 W/m2
02:49 15.4 °F 5.7 °F 30.01 in WNW 7.6 mph 15 mph 65% 0.00 in 0 W/m2
02:54 15.4 °F 5.8 °F 30.01 in NW 4.9 mph 15 mph 65% 0.00 in 0 W/m2
02:59 15.4 °F 5.7 °F 30.01 in NW 5.2 mph 15 mph 65% 0.00 in 0 W/m2
03:04 15.3 °F 5.6 °F 30.00 in NW 5.4 mph 15 mph 64.8% 0.00 in 0 W/m2
03:09 15.3 °F 5.3 °F 30.00 in NW 4.9 mph 13 mph 64% 0.00 in 0 W/m2
03:14 15.3 °F 5.3 °F 30.00 in NW 5.2 mph 13 mph 64% 0.00 in 0 W/m2
03:19 15.2 °F 5.2 °F 30.00 in NW 3.2 mph 13 mph 64% 0.00 in 0 W/m2
03:24 15.1 °F 5.1 °F 30.00 in NNW 3.8 mph 13 mph 64% 0.00 in 0 W/m2
03:29 15 °F 5 °F 30.00 in NW 5.9 mph 14 mph 64% 0.00 in 0 W/m2
03:34 14.9 °F 5.2 °F 30.00 in NNW 4 mph 14 mph 64.6% 0.00 in 0 W/m2
03:39 14.9 °F 5.3 °F 30.00 in NW 4 mph 11 mph 65% 0.00 in 0 W/m2
03:44 14.8 °F 5.2 °F 30.00 in NW 5.2 mph 11 mph 65% 0.00 in 0 W/m2
03:49 14.7 °F 5.1 °F 29.99 in NW 5 mph 11 mph 65% 0.00 in 0 W/m2
03:54 14.7 °F 5 °F 30.00 in NW 6.2 mph 12 mph 65% 0.00 in 0 W/m2
03:59 14.6 °F 5 °F 30.00 in NW 5.6 mph 14 mph 65% 0.00 in 0 W/m2
04:00 14.6 °F 5 °F 29.99 in NW 5 mph 14 mph 65% 0.00 in 0 W/m2
04:09 14.6 °F 4.7 °F 29.99 in NW 7.4 mph 14 mph 64% 0.00 in 0 W/m2
04:14 14.6 °F 4.6 °F 29.99 in NW 11.7 mph 19 mph 63.8% 0.00 in 0 W/m2
04:19 14.6 °F 4.3 °F 29.99 in NW 14.7 mph 25 mph 63% 0.00 in 0 W/m2
04:24 14.6 °F 4.3 °F 30.00 in NW 12.3 mph 27 mph 63% 0.00 in 0 W/m2
04:29 14.5 °F 4 °F 30.00 in NW 13.6 mph 27 mph 62.5% 0.00 in 0 W/m2
04:34 14.4 °F 4.2 °F 30.00 in NW 11.1 mph 27 mph 63.3% 0.00 in 0 W/m2
04:39 14.3 °F 4.7 °F 30.00 in NW 10.9 mph 27 mph 65% 0.00 in 0 W/m2
04:44 14.2 °F 4.9 °F 29.99 in WNW 9.2 mph 27 mph 66% 0.00 in 0 W/m2
04:49 14.1 °F 5.3 °F 30.00 in NNW 5.9 mph 27 mph 67.5% 0.00 in 0 W/m2
04:54 14.1 °F 5.8 °F 30.00 in NW 9.3 mph 27 mph 69% 0.00 in 0 W/m2
04:59 13.8 °F 4.6 °F 29.99 in NW 11.6 mph 27 mph 66.2% 0.00 in 0 W/m2
05:04 13.5 °F 3.6 °F 30.00 in NW 10 mph 27 mph 64% 0.00 in 0 W/m2
05:09 13.2 °F 2.4 °F 29.99 in NW 9.5 mph 22 mph 61.4% 0.00 in 0 W/m2
05:14 12.9 °F 1.9 °F 29.99 in NW 8.5 mph 22 mph 60.5% 0.00 in 0 W/m2
05:19 12.7 °F 1.5 °F 29.99 in WNW 13.3 mph 27 mph 60.2% 0.00 in 0 W/m2
05:24 12.3 °F 0.7 °F 29.97 in WNW 12.4 mph 27 mph 59% 0.00 in 0 W/m2
05:29 12 °F 0.3 °F 29.99 in NW 12 mph 27 mph 58.8% 0.00 in 0 W/m2
05:34 11.8 °F 0.8 °F 30.00 in WNW 13.2 mph 27 mph 60.7% 0.00 in 0 W/m2
05:39 11.5 °F 1 °F 29.99 in WNW 11.8 mph 24 mph 62% 0.00 in 0 W/m2
05:44 11.2 °F 0.7 °F 30.00 in NW 12.5 mph 24 mph 61.9% 0.00 in 0 W/m2
05:49 11 °F 0.2 °F 30.00 in NW 9.8 mph 24 mph 61% 0.00 in 0 W/m2
05:54 10.7 °F -0.2 °F 30.00 in WNW 12.7 mph 26 mph 60.6% 0.00 in 0 W/m2
05:59 10.5 °F -0.7 °F 30.00 in WNW 11.1 mph 27 mph 60% 0.00 in 0 W/m2
06:04 10.3 °F -0.6 °F 30.00 in WNW 9.8 mph 27 mph 60.7% 0.00 in 0 W/m2
06:09 10.2 °F -0.6 °F 30.00 in WNW 7.5 mph 15 mph 61% 0.00 in 0 W/m2
06:14 10 °F -0.8 °F 30.00 in NW 10.3 mph 20 mph 61% 0.00 in 0 W/m2
06:19 9.7 °F -1 °F 30.00 in WNW 8.9 mph 21 mph 61% 0.00 in 0 W/m2
06:24 9.5 °F -1.2 °F 30.00 in WNW 5.1 mph 21 mph 61% 0.00 in 0 W/m2
06:29 9.3 °F -1.4 °F 30.00 in NW 9 mph 22 mph 61% 0.00 in 0 W/m2
06:34 9.1 °F -1.6 °F 30.00 in NW 6.3 mph 22 mph 61% 0.00 in 0 W/m2
06:39 8.9 °F -1.8 °F 30.01 in NW 5.5 mph 16 mph 61% 0.00 in 0 W/m2
06:44 8.7 °F -1.9 °F 30.01 in NW 6.3 mph 18 mph 61% 0.00 in 0 W/m2
06:49 8.6 °F -2.3 °F 30.01 in NW 8.5 mph 20 mph 60.4% 0.00 in 0 W/m2
06:54 8.5 °F -2.5 °F 30.00 in NW 5.5 mph 20 mph 60.2% 0.00 in 0 W/m2
06:59 8.4 °F -2.4 °F 30.00 in NW 6 mph 20 mph 60.7% 0.00 in 0 W/m2
07:04 8.3 °F -2.7 °F 30.00 in NW 6 mph 20 mph 60% 0.00 in 0 W/m2
07:09 8.3 °F -2.7 °F 30.01 in NNW 6.4 mph 16 mph 60% 0.00 in 7 W/m2
07:14 8.3 °F -2.8 °F 30.02 in North 4.2 mph 16 mph 60% 0.00 in 11 W/m2
07:19 8.2 °F -2.8 °F 30.02 in North 2.3 mph 16 mph 60% 0.00 in 18 W/m2
07:24 8.2 °F -2.6 °F 30.02 in NNW 3.8 mph 16 mph 60.6% 0.00 in 23 W/m2
07:29 8.3 °F -2.4 °F 30.02 in NNE 3.2 mph 16 mph 60.8% 0.00 in 26 W/m2
07:34 8.4 °F -2.3 °F 30.03 in North 3.7 mph 16 mph 61% 0.00 in 54 W/m2
07:39 8.6 °F -2.1 °F 30.03 in NNW 4.2 mph 8 mph 61% 0.00 in 51 W/m2
07:44 8.9 °F -1.8 °F 30.03 in WNW 4.5 mph 11 mph 61% 0.00 in 79 W/m2
07:49 9.2 °F -1.8 °F 30.03 in NW 4.4 mph 15 mph 60% 0.00 in 63 W/m2
07:54 9.4 °F -1.7 °F 30.03 in WNW 7 mph 18 mph 59.9% 0.00 in 56 W/m2
07:59 9.4 °F -1.9 °F 30.03 in NW 3.7 mph 18 mph 59.2% 0.00 in 56 W/m2
08:00 9.4 °F -1.7 °F 30.03 in WNW 4 mph 18 mph 60% 0.00 in 56 W/m2
08:09 9.3 °F -1.8 °F 30.03 in WNW 8 mph 16 mph 60% 0.00 in 74 W/m2
08:14 9.1 °F -1.9 °F 30.03 in WNW 5.7 mph 16 mph 60.2% 0.00 in 86 W/m2
08:19 9.1 °F -1.6 °F 30.02 in WNW 7.5 mph 16 mph 61% 0.00 in 83 W/m2
08:24 9.1 °F -1.6 °F 30.02 in NW 7.6 mph 17 mph 61% 0.00 in 72 W/m2
08:29 9 °F -1.7 °F 30.02 in NW 5.2 mph 17 mph 61% 0.00 in 62 W/m2
08:34 9 °F -1.7 °F 30.02 in NW 7.9 mph 17 mph 61% 0.00 in 53 W/m2
08:39 8.9 °F -1.8 °F 30.02 in WNW 10.4 mph 22 mph 61% 0.00 in 105 W/m2
08:44 8.9 °F -1.8 °F 30.01 in NW 6.7 mph 22 mph 61% 0.00 in 130 W/m2
08:49 9.2 °F -1.4 °F 30.01 in NW 8.1 mph 22 mph 61.2% 0.00 in 148 W/m2
08:54 9.5 °F -1.2 °F 30.02 in NW 6.2 mph 22 mph 60.9% 0.00 in 179 W/m2
08:59 10 °F -1.1 °F 30.02 in NW 7.3 mph 22 mph 60% 0.00 in 211 W/m2
09:04 10.4 °F -1.2 °F 30.02 in NW 10.3 mph 22 mph 58.8% 0.00 in 211 W/m2
09:09 10.6 °F -1.2 °F 30.01 in NW 7.4 mph 21 mph 58% 0.00 in 271 W/m2
09:14 11 °F -1.1 °F 30.01 in NW 8.5 mph 21 mph 57.6% 0.00 in 272 W/m2
09:19 11.1 °F -1.4 °F 30.01 in NW 8.3 mph 21 mph 56.3% 0.00 in 197 W/m2
09:24 11 °F -1.6 °F 30.01 in NW 7 mph 21 mph 56% 0.00 in 209 W/m2
09:29 11.1 °F -1.4 °F 30.01 in NW 6.9 mph 21 mph 56.2% 0.00 in 214 W/m2
09:34 11.4 °F -1.2 °F 30.01 in NNW 9 mph 23 mph 56% 0.00 in 183 W/m2
09:39 11.5 °F -1.6 °F 30.02 in NW 11.5 mph 25 mph 54.8% 0.00 in 248 W/m2
09:44 11.3 °F -2.1 °F 30.01 in NW 10.7 mph 26 mph 54% 0.00 in 211 W/m2
09:49 11.2 °F -2 °F 30.02 in NW 6.3 mph 26 mph 54.4% 0.00 in 174 W/m2
09:54 11.3 °F -1.4 °F 30.02 in NW 7.5 mph 26 mph 56.1% 0.00 in 237 W/m2
09:59 11.5 °F -1.6 °F 30.02 in NW 10.5 mph 26 mph 54.8% 0.00 in 237 W/m2
10:04 11.4 °F -2 °F 30.02 in NW 9.5 mph 26 mph 54% 0.00 in 169 W/m2
10:09 11.3 °F -2 °F 30.02 in NW 7.6 mph 19 mph 54.3% 0.00 in 230 W/m2
10:14 11.4 °F -1.7 °F 30.02 in NW 7.6 mph 19 mph 54.8% 0.00 in 279 W/m2
10:19 11.7 °F -1.7 °F 30.01 in NW 10.2 mph 20 mph 54.1% 0.00 in 313 W/m2
10:24 12 °F -1.5 °F 30.02 in NW 7.1 mph 20 mph 54% 0.00 in 279 W/m2
10:29 12.3 °F -1.1 °F 30.02 in NW 8.8 mph 20 mph 54% 0.00 in 353 W/m2
10:34 12.6 °F -1.4 °F 30.02 in NW 10.1 mph 21 mph 52.8% 0.00 in 408 W/m2
10:39 12.8 °F -1.1 °F 30.01 in NW 6.7 mph 21 mph 53% 0.00 in 420 W/m2
10:44 13.1 °F -1.1 °F 30.02 in NW 10.5 mph 21 mph 52.4% 0.00 in 487 W/m2
10:49 13.2 °F -1.1 °F 30.02 in NW 8.2 mph 21 mph 52% 0.00 in 497 W/m2
10:54 13.7 °F -0.5 °F 30.01 in NW 5.3 mph 21 mph 52.3% 0.00 in 548 W/m2
10:59 14.6 °F 0.1 °F 30.01 in NW 7.8 mph 21 mph 51.9% 0.00 in 555 W/m2
11:04 15 °F -0.1 °F 30.01 in NW 8.1 mph 21 mph 50.3% 0.00 in 550 W/m2
11:09 15.3 °F 0.6 °F 30.01 in NW 8.1 mph 22 mph 51.3% 0.00 in 522 W/m2
11:14 15.3 °F -0.5 °F 30.01 in NW 12.2 mph 26 mph 48.9% 0.00 in 436 W/m2
11:19 14.6 °F -1.1 °F 30.00 in NW 10.7 mph 26 mph 49% 0.00 in 243 W/m2
11:24 14.2 °F -1 °F 30.00 in NW 8.9 mph 26 mph 49.9% 0.00 in 306 W/m2
11:29 14.1 °F -1 °F 30.00 in NW 8.8 mph 26 mph 50.4% 0.00 in 306 W/m2
11:34 14.2 °F -0.8 °F 30.00 in NW 8 mph 26 mph 50.7% 0.00 in 369 W/m2
11:39 14.2 °F -0.7 °F 30.00 in NNW 6.9 mph 26 mph 50.7% 0.00 in 380 W/m2
11:44 14.4 °F -0.5 °F 30.00 in NW 7.8 mph 26 mph 50.7% 0.00 in 376 W/m2
11:49 14.7 °F -0.5 °F 30.00 in NW 10.8 mph 26 mph 50.3% 0.00 in 213 W/m2
11:54 14.7 °F -0.5 °F 29.99 in NNW 9.2 mph 26 mph 50% 0.00 in 308 W/m2
11:59 14.9 °F -0.4 °F 29.99 in NW 6.8 mph 26 mph 50% 0.00 in 485 W/m2
12:04 15.1 °F -0.2 °F 29.98 in NNW 6 mph 26 mph 50% 0.00 in 485 W/m2
12:09 15.2 °F -0.2 °F 29.99 in NW 11.1 mph 30 mph 49.8% 0.00 in 137 W/m2
12:14 15 °F -0.5 °F 29.99 in NW 7.1 mph 30 mph 49.5% 0.00 in 197 W/m2
12:19 15.2 °F 0.3 °F 29.99 in NW 8.9 mph 30 mph 50.9% 0.00 in 144 W/m2
12:24 15.4 °F 0.4 °F 30.00 in NW 7.6 mph 30 mph 50.7% 0.00 in 162 W/m2
12:29 15.5 °F 0.4 °F 29.99 in NW 11.1 mph 30 mph 50.4% 0.00 in 160 W/m2
12:34 15.5 °F 0 °F 29.99 in NW 13.1 mph 30 mph 49.4% 0.00 in 209 W/m2
12:39 15.4 °F -0.3 °F 29.99 in NW 11.6 mph 28 mph 49% 0.00 in 178 W/m2
12:44 15.5 °F 0.2 °F 29.98 in WNW 7.4 mph 28 mph 49.9% 0.00 in 137 W/m2
12:49 15.7 °F 0.4 °F 29.99 in NW 9 mph 28 mph 50% 0.00 in 137 W/m2
12:54 16 °F 0.6 °F 29.99 in NW 9.7 mph 28 mph 49.9% 0.00 in 311 W/m2
12:59 16.2 °F 0.8 °F 29.99 in WNW 8.3 mph 28 mph 50% 0.00 in 311 W/m2
13:04 16.5 °F 1.1 °F 29.99 in NW 8.7 mph 28 mph 50% 0.00 in 230 W/m2
13:09 16.8 °F 1.4 °F 29.99 in NNW 7.2 mph 20 mph 50% 0.00 in 155 W/m2
13:14 17 °F 1.3 °F 29.99 in NNW 10.3 mph 21 mph 49.3% 0.00 in 176 W/m2
13:19 17.1 °F 1.5 °F 29.99 in NW 6.9 mph 21 mph 49.7% 0.00 in 221 W/m2
13:24 17.5 °F 1.9 °F 29.98 in NW 9.4 mph 24 mph 49.9% 0.00 in 295 W/m2
13:29 17.7 °F 1.8 °F 29.99 in NW 9.2 mph 24 mph 48.8% 0.00 in 345 W/m2
13:34 17.9 °F 1.7 °F 29.99 in NW 10 mph 24 mph 48.4% 0.00 in 345 W/m2
13:39 18 °F 1.7 °F 29.98 in NW 9.1 mph 23 mph 48.3% 0.00 in 338 W/m2
13:44 18.1 °F 2.1 °F 29.98 in NW 9.8 mph 27 mph 48.7% 0.00 in 527 W/m2
13:49 18.2 °F 1.8 °F 29.98 in NNW 8.7 mph 27 mph 48% 0.00 in 526 W/m2
13:54 18.2 °F 1.8 °F 29.98 in NW 7.7 mph 27 mph 48% 0.00 in 306 W/m2
13:59 18.3 °F 2.2 °F 29.99 in NW 9.2 mph 27 mph 48.5% 0.00 in 114 W/m2
14:04 18.4 °F 2 °F 29.99 in NW 7.3 mph 27 mph 48% 0.00 in 251 W/m2
14:09 18.7 °F 2.2 °F 29.99 in NW 7.9 mph 19 mph 48% 0.00 in 390 W/m2
14:14 18.9 °F 2.4 °F 29.99 in NW 9 mph 19 mph 48% 0.00 in 390 W/m2
14:19 19 °F 2.4 °F 29.99 in NW 8.3 mph 19 mph 47.6% 0.00 in 374 W/m2
14:24 19 °F 2.4 °F 30.00 in NW 5.9 mph 19 mph 47.7% 0.00 in 116 W/m2
14:29 19.1 °F 2.8 °F 30.00 in NNW 7.8 mph 19 mph 48.2% 0.00 in 346 W/m2
14:34 19.3 °F 2.8 °F 30.00 in NNW 8.6 mph 19 mph 48% 0.00 in 322 W/m2
14:39 19.3 °F 2.8 °F 30.00 in NW 7.8 mph 18 mph 48% 0.00 in 142 W/m2
14:44 19.2 °F 2.8 °F 30.01 in NW 8.6 mph 18 mph 48% 0.00 in 142 W/m2
14:49 19.2 °F 2.9 °F 30.01 in NW 5.8 mph 18 mph 48.4% 0.00 in 100 W/m2
14:54 19.4 °F 3.7 °F 30.01 in NNW 5.1 mph 18 mph 49.8% 0.00 in 227 W/m2
14:59 19.6 °F 3.6 °F 30.01 in NNW 5.3 mph 18 mph 49% 0.00 in 281 W/m2
15:04 19.7 °F 3.7 °F 30.01 in NW 4.3 mph 18 mph 49% 0.00 in 35 W/m2
15:09 19.8 °F 3.7 °F 30.01 in NNW 4.2 mph 13 mph 49% 0.00 in 33 W/m2
15:14 19.9 °F 3.8 °F 30.02 in NNW 6.3 mph 13 mph 49% 0.00 in 30 W/m2
15:19 19.9 °F 3.8 °F 30.02 in NW 9.7 mph 21 mph 49% 0.00 in 30 W/m2
15:24 19.9 °F 3.8 °F 30.02 in NNW 6.6 mph 21 mph 49% 0.00 in 30 W/m2
15:29 19.8 °F 3.8 °F 30.02 in NNW 4.6 mph 21 mph 49% 0.00 in 28 W/m2
15:34 19.9 °F 4 °F 30.02 in NW 4.6 mph 21 mph 49.4% 0.00 in 26 W/m2
15:39 20 °F 4.4 °F 30.02 in NNW 6.6 mph 16 mph 50% 0.00 in 26 W/m2
15:44 19.9 °F 4.2 °F 30.03 in NW 10.3 mph 22 mph 49.8% 0.00 in 25 W/m2
15:49 19.9 °F 3.8 °F 30.03 in NW 9.9 mph 22 mph 49% 0.00 in 25 W/m2
15:54 19.8 °F 4 °F 30.03 in NW 6.4 mph 22 mph 49.6% 0.00 in 23 W/m2
15:59 19.7 °F 4.2 °F 30.04 in NW 8.9 mph 22 mph 50.2% 0.00 in 21 W/m2
16:00 19.7 °F 4.1 °F 30.03 in NW 5 mph 22 mph 50% 0.00 in 21 W/m2
16:09 19.5 °F 4 °F 30.04 in NNW 6.3 mph 16 mph 50% 0.00 in 19 W/m2
16:14 19.5 °F 4.3 °F 30.04 in NW 8.1 mph 17 mph 51% 0.00 in 19 W/m2
16:19 19.5 °F 4.3 °F 30.05 in NW 9.4 mph 18 mph 51% 0.00 in 18 W/m2
16:24 19.4 °F 5 °F 30.05 in NW 8.2 mph 19 mph 52.9% 0.00 in 18 W/m2
16:29 19.3 °F 4.5 °F 30.05 in NW 7.8 mph 19 mph 51.7% 0.00 in 16 W/m2
16:34 19.2 °F 4.5 °F 30.05 in NW 7.1 mph 19 mph 52% 0.00 in 14 W/m2
16:39 19.1 °F 4.4 °F 30.05 in NW 9.2 mph 25 mph 52% 0.00 in 12 W/m2
16:44 19.1 °F 4.5 °F 30.06 in NW 7.8 mph 25 mph 52.4% 0.00 in 11 W/m2
16:49 19 °F 4.7 °F 30.06 in NW 6.2 mph 25 mph 53% 0.00 in 9 W/m2
16:54 18.9 °F 4.9 °F 30.06 in NW 6.8 mph 25 mph 53.5% 0.00 in 7 W/m2
16:59 18.9 °F 4.9 °F 30.06 in NW 6.6 mph 25 mph 53.6% 0.00 in 5 W/m2
17:04 18.9 °F 5 °F 30.06 in NW 5.2 mph 25 mph 54% 0.00 in 0 W/m2
17:09 18.8 °F 4.9 °F 30.07 in NNW 4.4 mph 13 mph 54% 0.00 in 0 W/m2
17:14 18.7 °F 4.9 °F 30.07 in NNW 4.6 mph 13 mph 54.2% 0.00 in 0 W/m2
17:19 18.6 °F 5.1 °F 30.07 in NNW 3.3 mph 13 mph 55% 0.00 in 0 W/m2
17:24 18.6 °F 5.1 °F 30.08 in NW 5.3 mph 13 mph 55% 0.00 in 0 W/m2
17:29 18.5 °F 5.4 °F 30.08 in NW 7.5 mph 19 mph 55.8% 0.00 in 0 W/m2
17:34 18.5 °F 5.4 °F 30.08 in NW 7.2 mph 19 mph 56% 0.00 in 0 W/m2
17:39 18.4 °F 5.4 °F 30.08 in NW 5.2 mph 19 mph 56% 0.00 in 0 W/m2
17:44 18.4 °F 5.5 °F 30.08 in NW 5.4 mph 19 mph 56.6% 0.00 in 0 W/m2
17:49 18.3 °F 5.6 °F 30.08 in NW 4.6 mph 19 mph 57% 0.00 in 0 W/m2
17:54 18.2 °F 5.5 °F 30.09 in NNW 5.5 mph 19 mph 57% 0.00 in 0 W/m2
17:59 18.2 °F 5.5 °F 30.09 in NW 5.9 mph 19 mph 57% 0.00 in 0 W/m2
18:04 18.1 °F 5.5 °F 30.09 in NW 5.4 mph 19 mph 57% 0.00 in 0 W/m2
18:09 18.1 °F 5.7 °F 30.10 in NW 6.3 mph 16 mph 57.6% 0.00 in 0 W/m2
18:14 18.1 °F 5.5 °F 30.10 in NW 2.8 mph 16 mph 57.3% 0.00 in 0 W/m2
18:19 18 °F 5.7 °F 30.10 in NNW 4.1 mph 16 mph 58% 0.00 in 0 W/m2
18:24 17.9 °F 5.7 °F 30.10 in NW 3.9 mph 16 mph 58% 0.00 in 0 W/m2
18:29 17.9 °F 5.6 °F 30.10 in NNW 3 mph 16 mph 58% 0.00 in 0 W/m2
18:34 17.8 °F 5.5 °F 30.10 in NW 4.8 mph 16 mph 58% 0.00 in 0 W/m2
18:39 17.7 °F 5.5 °F 30.11 in NW 5.2 mph 13 mph 58% 0.00 in 0 W/m2
18:44 17.7 °F 5.7 °F 30.11 in NNW 2.5 mph 13 mph 58.8% 0.00 in 0 W/m2
18:49 17.6 °F 5.8 °F 30.11 in NW 4.9 mph 13 mph 59% 0.00 in 0 W/m2
18:54 17.6 °F 5.7 °F 30.11 in NNW 4.4 mph 13 mph 59% 0.00 in 0 W/m2
18:59 17.5 °F 5.6 °F 30.11 in NW 5.4 mph 14 mph 59% 0.00 in 0 W/m2
19:04 17.5 °F 5.6 °F 30.11 in NNW 4.5 mph 14 mph 59% 0.00 in 0 W/m2
19:09 17.4 °F 5.8 °F 30.12 in NNW 3.9 mph 12 mph 59.7% 0.00 in 0 W/m2
19:14 17.3 °F 5.8 °F 30.12 in NW 3.4 mph 12 mph 60% 0.00 in 0 W/m2
19:19 17.3 °F 5.8 °F 30.12 in NW 4 mph 12 mph 60% 0.00 in 0 W/m2
19:24 17.3 °F 5.8 °F 30.12 in NW 3.6 mph 12 mph 60% 0.00 in 0 W/m2
19:29 17.2 °F 5.7 °F 30.12 in NW 3.5 mph 14 mph 60% 0.00 in 0 W/m2
19:34 17.1 °F 5.6 °F 30.12 in NW 4.4 mph 14 mph 60% 0.00 in 0 W/m2
19:39 17.1 °F 5.6 °F 30.12 in NW 4.2 mph 11 mph 60% 0.00 in 0 W/m2
19:44 17.1 °F 5.6 °F 30.13 in NW 3.3 mph 11 mph 60% 0.00 in 0 W/m2
19:49 17.1 °F 5.6 °F 30.13 in NNW 3.3 mph 11 mph 60% 0.00 in 0 W/m2
19:54 17.1 °F 5.6 °F 30.13 in NW 2.8 mph 11 mph 60% 0.00 in 0 W/m2
19:59 17 °F 5.7 °F 30.13 in NW 2.3 mph 11 mph 60.4% 0.00 in 0 W/m2
20:00 17 °F 5.5 °F 30.13 in NW 5 mph 11 mph 60% 0.00 in 0 W/m2
20:09 16.9 °F 5.8 °F 30.13 in NNW 5.2 mph 12 mph 61% 0.00 in 0 W/m2
20:14 16.9 °F 5.8 °F 30.13 in NW 5.6 mph 13 mph 61% 0.00 in 0 W/m2
20:19 16.9 °F 5.8 °F 30.13 in NW 4.7 mph 13 mph 61% 0.00 in 0 W/m2
20:24 16.9 °F 5.8 °F 30.14 in NNW 3.6 mph 13 mph 61% 0.00 in 0 W/m2
20:29 16.9 °F 5.8 °F 30.13 in NW 5.2 mph 13 mph 61% 0.00 in 0 W/m2
20:34 16.9 °F 5.8 °F 30.14 in NW 4.4 mph 13 mph 61% 0.00 in 0 W/m2
20:39 16.8 °F 5.7 °F 30.14 in NW 4 mph 10 mph 61% 0.00 in 0 W/m2
20:44 16.8 °F 5.7 °F 30.14 in NNW 3.9 mph 12 mph 61% 0.00 in 0 W/m2
20:49 16.8 °F 5.7 °F 30.15 in NNW 4.5 mph 12 mph 61% 0.00 in 0 W/m2
20:54 16.7 °F 5.6 °F 30.14 in NW 4.2 mph 16 mph 61% 0.00 in 0 W/m2
20:59 16.7 °F 5.6 °F 30.15 in NW 4.7 mph 16 mph 61% 0.00 in 0 W/m2
21:04 16.6 °F 5.5 °F 30.15 in NW 4.6 mph 16 mph 61% 0.00 in 0 W/m2
21:09 16.6 °F 5.5 °F 30.15 in NW 4 mph 10 mph 61% 0.00 in 0 W/m2
21:14 16.5 °F 5.4 °F 30.15 in NW 1.9 mph 10 mph 61% 0.00 in 0 W/m2
21:19 16.4 °F 5.4 °F 30.15 in NW 3.8 mph 12 mph 61% 0.00 in 0 W/m2
21:24 16.4 °F 5.3 °F 30.15 in NNW 3 mph 12 mph 61% 0.00 in 0 W/m2
21:29 16.3 °F 5.4 °F 30.15 in NW 2.6 mph 12 mph 61.5% 0.00 in 0 W/m2
21:34 16.3 °F 5.5 °F 30.15 in NNW 3.6 mph 12 mph 61.7% 0.00 in 0 W/m2
21:39 16.2 °F 5.3 °F 30.16 in NNW 3.1 mph 12 mph 61.5% 0.00 in 0 W/m2
21:44 16.2 °F 5.4 °F 30.16 in NNW 2.9 mph 12 mph 61.9% 0.00 in 0 W/m2
21:49 16.1 °F 5.4 °F 30.16 in NNW 3.5 mph 12 mph 62% 0.00 in 0 W/m2
21:54 16.1 °F 5.4 °F 30.16 in NNW 4.8 mph 13 mph 62% 0.00 in 0 W/m2
21:59 16.1 °F 5.4 °F 30.16 in NW 2.9 mph 13 mph 62% 0.00 in 0 W/m2
22:04 16 °F 5.3 °F 30.16 in NNW 3.1 mph 13 mph 62% 0.00 in 0 W/m2
22:09 15.9 °F 5.2 °F 30.16 in NNW 3 mph 8 mph 62% 0.00 in 0 W/m2
22:14 15.9 °F 5.2 °F 30.16 in NW 3.2 mph 9 mph 62% 0.00 in 0 W/m2
22:19 15.8 °F 5.1 °F 30.16 in NNW 3.3 mph 9 mph 62% 0.00 in 0 W/m2
22:24 15.7 °F 5 °F 30.17 in NW 2.5 mph 10 mph 62% 0.00 in 0 W/m2
22:29 15.6 °F 5.3 °F 30.17 in NW 1.5 mph 10 mph 63% 0.00 in 0 W/m2
22:34 15.5 °F 5.2 °F 30.17 in NW 0.2 mph 10 mph 63% 0.00 in 0 W/m2
22:39 15.4 °F 5 °F 30.17 in NW 2 mph 7 mph 63% 0.00 in 0 W/m2
22:44 15.2 °F 4.9 °F 30.17 in NNW 2.7 mph 7 mph 63% 0.00 in 0 W/m2
22:49 15.1 °F 4.8 °F 30.17 in NNW 1.4 mph 7 mph 63% 0.00 in 0 W/m2
22:54 15 °F 4.7 °F 30.17 in NNW 1.1 mph 7 mph 63.1% 0.00 in 0 W/m2
22:59 14.8 °F 4.7 °F 30.17 in North 2.2 mph 7 mph 63.4% 0.00 in 0 W/m2
23:04 14.7 °F 4.7 °F 30.17 in NNW 2.5 mph 7 mph 64% 0.00 in 0 W/m2
23:09 14.6 °F 4.7 °F 30.17 in NNW 2.1 mph 7 mph 64% 0.00 in 0 W/m2
23:14 14.5 °F 4.6 °F 30.17 in NNW 2.6 mph 7 mph 64% 0.00 in 0 W/m2
23:19 14.4 °F 4.5 °F 30.17 in NNW 1.7 mph 7 mph 64% 0.00 in 0 W/m2
23:24 14.3 °F 4.4 °F 30.17 in NNW 1.7 mph 7 mph 64% 0.00 in 0 W/m2
23:29 14.2 °F 4.3 °F 30.18 in NNW 1.8 mph 7 mph 64% 0.00 in 0 W/m2
23:34 14.1 °F 4.2 °F 30.18 in NNW 1.5 mph 7 mph 64% 0.00 in 0 W/m2
23:39 14 °F 4.1 °F 30.18 in NNW 0.7 mph 6 mph 64.2% 0.00 in 0 W/m2
23:44 13.8 °F 4.3 °F 30.18 in NNW 1.2 mph 6 mph 65% 0.00 in 0 W/m2
23:49 13.7 °F 4 °F 30.18 in NNW 1.5 mph 6 mph 64.5% 0.00 in 0 W/m2
23:54 13.6 °F 4 °F 30.18 in NNW 1.1 mph 6 mph 65% 0.00 in 0 W/m2
23:59 13.5 °F 4 °F 30.18 in NNW 1.3 mph 6 mph 65% 0.00 in 0 W/m2
Hartford County Weather
Compliments of Weather Underground - 2 mb